Time;durP1;ratioP1;P1;durP2;ratioP2;P2;SDS_P1;SDS_P2;PMS_P1;PMS_P2;Temp;Humidity;BMP_temperature;BMP_pressure;BME280_temperature;BME280_humidity;BME280_pressure;Samples;Min_cycle;Max_cycle;Signal;HPM_P1;HPM_P2
2022/05/17 00:01:38;;;;;;;;;;;;;;;10.78;39.17;100613.92;1704337;84;20212;-56
2022/05/17 00:04:44;;;;;;;;;;;;;;;10.70;39.22;100608.44;1704292;84;20200;-57
2022/05/17 00:07:49;;;;;;;;;;;;;;;10.65;39.30;100601.75;1704450;84;20264;-58
2022/05/17 00:10:54;;;;;;;;;;;;;;;10.59;39.34;100595.09;1704364;84;20552;-58
2022/05/17 00:13:59;;;;;;;;;;;;;;;10.51;39.39;100601.94;1704363;84;20593;-57
2022/05/17 00:17:06;;;;;;;;;;;;;;;10.44;39.44;100596.78;1703969;84;20212;-56
2022/05/17 00:20:11;;;;;;;;;;;;;;;10.36;39.48;100598.14;1704319;84;20244;-57
2022/05/17 00:23:19;;;;;;;;;;;;;;;10.27;39.55;100605.50;1704457;84;20208;-56
2022/05/17 00:26:25;;;;;;;;;;;;;;;10.21;39.66;100597.11;1704397;84;20264;-58
2022/05/17 00:29:30;;;;;;;;;;;;;;;10.14;39.72;100595.55;1704327;84;20232;-57
2022/05/17 00:32:35;;;;;;;;;;;;;;;10.08;39.77;100591.27;1704365;84;20233;-56
2022/05/17 00:35:43;;;;;;;;;;;;;;;10.01;39.88;100592.91;1704383;84;20236;-56
2022/05/17 00:38:48;;;;;;;;;;;;;;;9.91;39.94;100596.31;1704356;84;20204;-56
2022/05/17 00:41:53;;;;;;;;;;;;;;;9.78;39.98;100589.95;1704418;84;20217;-58
2022/05/17 00:44:59;;;;;;;;;;;;;;;9.66;40.07;100589.03;1704333;84;20271;-58
2022/05/17 00:48:05;;;;;;;;;;;;;;;9.53;40.10;100590.02;1704349;84;20540;-56
2022/05/17 00:51:10;;;;;;;;;;;;;;;9.38;40.21;100589.78;1704340;84;20227;-56
2022/05/17 00:57:44;;;;;;;;;;;;;;;9.09;40.46;100591.49;1747155;82;20239;-57
2022/05/17 01:00:52;;;;;;;;;;;;;;;8.95;40.56;100592.58;1717649;83;20198;-57
2022/05/17 01:04:08;;;;;;;;;;;;;;;8.82;40.74;100584.82;1717678;83;20222;-58
2022/05/17 01:07:20;;;;;;;;;;;;;;;8.73;40.97;100595.34;1717747;83;20202;-58
2022/05/17 01:10:25;;;;;;;;;;;;;;;8.65;41.19;100579.39;1717670;83;20543;-56
2022/05/17 01:16:54;;;;;;;;;;;;;;;8.51;41.56;100585.42;1717854;83;20202;-56
2022/05/17 01:20:00;;;;;;;;;;;;;;;8.43;41.73;100587.59;1718240;83;20190;-57
2022/05/17 01:23:04;;;;;;;;;;;;;;;8.41;41.88;100586.02;1717952;83;20550;-56
2022/05/17 01:26:09;;;;;;;;;;;;;;;8.41;42.03;100586.02;1718351;83;20218;-56
2022/05/17 01:29:14;;;;;;;;;;;;;;;8.37;42.15;100585.98;1718425;83;20179;-57
2022/05/17 01:32:19;;;;;;;;;;;;;;;8.30;42.19;100587.62;1697429;83;20233;-58
2022/05/17 01:35:25;;;;;;;;;;;;;;;8.18;42.18;100589.67;1718103;83;20227;-57
2022/05/17 01:38:29;;;;;;;;;;;;;;;8.07;42.26;100587.70;1718456;83;20503;-58
2022/05/17 01:41:33;;;;;;;;;;;;;;;7.99;42.41;100594.44;1697581;83;20523;-57
2022/05/17 01:44:39;;;;;;;;;;;;;;;7.96;42.65;100594.75;1718120;83;20250;-58
2022/05/17 01:47:43;;;;;;;;;;;;;;;7.94;42.84;100598.12;1696992;83;20518;-57
2022/05/17 01:50:48;;;;;;;;;;;;;;;7.92;43.00;100597.41;1717663;83;20551;-55
2022/05/17 01:53:53;;;;;;;;;;;;;;;7.89;43.16;100595.86;1716916;83;20198;-58
2022/05/17 01:56:58;;;;;;;;;;;;;;;7.89;43.29;100599.09;1726124;80;20543;-58
2022/05/17 02:00:01;;;;;;;;;;;;;;;7.87;43.47;100595.16;1716482;83;20230;-56
2022/05/17 02:03:06;;;;;;;;;;;;;;;7.84;43.57;100591.38;1718701;83;20190;-56
2022/05/17 02:06:12;;;;;;;;;;;;;;;7.84;43.70;100582.33;1734488;83;20214;-57
2022/05/17 02:09:16;;;;;;;;;;;;;;;7.81;43.75;100583.51;1734327;83;20566;-56
2022/05/17 02:12:24;;;;;;;;;;;;;;;7.73;43.73;100581.19;1734337;83;20214;-57
2022/05/17 02:15:30;;;;;;;;;;;;;;;7.66;43.88;100579.58;1734299;83;20190;-57
2022/05/17 02:18:36;;;;;;;;;;;;;;;7.60;43.96;100581.06;1734308;83;20253;-57
2022/05/17 02:21:44;;;;;;;;;;;;;;;7.53;44.09;100575.84;1733254;82;20186;-57
2022/05/17 02:24:50;;;;;;;;;;;;;;;7.51;44.28;100575.17;1734288;83;20190;-56
2022/05/17 02:27:55;;;;;;;;;;;;;;;7.46;44.40;100577.48;1734445;83;20210;-56
2022/05/17 02:31:01;;;;;;;;;;;;;;;7.46;44.59;100564.36;1734406;83;20190;-56
2022/05/17 02:34:07;;;;;;;;;;;;;;;7.48;44.74;100568.63;1734312;83;20214;-56
2022/05/17 02:37:15;;;;;;;;;;;;;;;7.48;44.85;100564.55;1734327;83;20226;-57
2022/05/17 02:40:20;;;;;;;;;;;;;;;7.52;45.00;100568.70;1734332;83;20234;-57
2022/05/17 02:43:24;;;;;;;;;;;;;;;7.58;45.17;100561.27;1734323;83;20186;-57
2022/05/17 02:46:36;;;;;;;;;;;;;;;7.66;45.30;100571.92;1734333;83;20206;-57
2022/05/17 02:49:44;;;;;;;;;;;;;;;7.74;45.40;100565.21;1734373;83;20518;-57
2022/05/17 02:52:48;;;;;;;;;;;;;;;7.82;45.50;100562.58;1734256;83;20199;-56
2022/05/17 02:55:55;;;;;;;;;;;;;;;7.89;45.55;100565.89;1734238;83;20571;-58
2022/05/17 02:59:00;;;;;;;;;;;;;;;7.97;45.61;100562.37;1747987;81;20199;-56
2022/05/17 03:02:05;;;;;;;;;;;;;;;8.04;45.66;100551.22;1751996;82;20223;-56
2022/05/17 03:05:14;;;;;;;;;;;;;;;8.12;45.70;100563.57;1752339;81;20207;-57
2022/05/17 03:08:19;;;;;;;;;;;;;;;8.17;45.74;100582.52;1752470;81;20508;-57
2022/05/17 03:11:23;;;;;;;;;;;;;;;8.22;45.79;100584.77;1752507;82;20528;-56
2022/05/17 03:14:30;;;;;;;;;;;;;;;8.27;45.87;100575.16;1752310;81;20536;-56
2022/05/17 03:17:35;;;;;;;;;;;;;;;8.36;45.98;100577.44;1752440;82;20291;-58
2022/05/17 03:20:42;;;;;;;;;;;;;;;8.47;46.05;100580.78;1752574;82;20204;-55
2022/05/17 03:23:47;;;;;;;;;;;;;;;8.64;46.11;100584.52;1752188;81;20576;-56
2022/05/17 03:26:51;;;;;;;;;;;;;;;8.81;46.15;100579.52;1752004;82;20603;-55
2022/05/17 03:29:56;;;;;;;;;;;;;;;8.98;46.15;100584.07;1736790;82;20200;-56
2022/05/17 03:33:02;;;;;;;;;;;;;;;9.15;46.15;100577.68;1753360;81;20192;-57
2022/05/17 03:36:08;;;;;;;;;;;;;;;9.33;46.17;100577.61;1752145;82;20176;-57
2022/05/17 03:39:14;;;;;;;;;;;;;;;9.48;46.17;100571.36;1752922;81;20195;-56
2022/05/17 03:42:20;;;;;;;;;;;;;;;9.63;46.21;100575.19;1752418;82;20268;-57
2022/05/17 03:45:26;;;;;;;;;;;;;;;9.76;46.21;100578.33;1752567;82;20527;-54
2022/05/17 03:48:33;;;;;;;;;;;;;;;9.89;46.21;100577.34;1738337;81;20262;-56
2022/05/17 03:51:38;;;;;;;;;;;;;;;10.02;46.24;100584.53;1752173;82;20306;-57
2022/05/17 03:54:44;;;;;;;;;;;;;;;10.13;46.22;100583.41;1752488;81;20232;-57
2022/05/17 03:57:50;;;;;;;;;;;;;;;10.24;46.26;100577.61;1752456;82;20191;-56
2022/05/17 04:00:55;;;;;;;;;;;;;;;10.34;46.29;100575.55;1735594;83;20258;-58
2022/05/17 04:04:00;;;;;;;;;;;;;;;10.44;46.30;100570.78;1736740;81;20225;-56
2022/05/17 04:07:06;;;;;;;;;;;;;;;10.52;46.29;100570.28;1736696;83;20245;-56
2022/05/17 04:10:12;;;;;;;;;;;;;;;10.55;46.25;100574.05;1736700;81;20567;-55
2022/05/17 04:13:18;;;;;;;;;;;;;;;10.56;46.25;100569.41;1736712;81;20542;-57
2022/05/17 04:16:23;;;;;;;;;;;;;;;10.61;46.28;100565.64;1736737;83;20183;-57
2022/05/17 04:19:29;;;;;;;;;;;;;;;10.68;46.27;100563.08;1736249;81;20541;-56
2022/05/17 04:22:38;;;;;;;;;;;;;;;10.77;46.27;100564.27;1736856;83;20249;-56
2022/05/17 04:25:44;;;;;;;;;;;;;;;10.88;46.27;100563.08;1736780;83;20574;-56
2022/05/17 04:28:51;;;;;;;;;;;;;;;10.99;46.27;100560.81;1736706;81;20562;-56
2022/05/17 04:31:58;;;;;;;;;;;;;;;11.13;46.27;100557.88;1727562;81;20214;-56
2022/05/17 04:35:04;;;;;;;;;;;;;;;11.25;46.24;100555.09;1725364;82;20603;-56
2022/05/17 04:38:11;;;;;;;;;;;;;;;11.36;46.24;100553.34;1728030;82;20207;-56
2022/05/17 04:41:16;;;;;;;;;;;;;;;11.48;46.22;100550.58;1724934;83;20217;-55
2022/05/17 04:44:22;;;;;;;;;;;;;;;11.60;46.21;100546.41;1724818;82;20630;-57
2022/05/17 04:47:29;;;;;;;;;;;;;;;11.71;46.20;100548.27;1725025;83;20211;-55
2022/05/17 04:50:37;;;;;;;;;;;;;;;11.85;46.17;100542.53;1725052;82;20206;-55
2022/05/17 04:53:47;;;;;;;;;;;;;;;11.97;46.13;100545.22;1725597;82;20210;-54
2022/05/17 04:56:55;;;;;;;;;;;;;;;12.11;46.08;100538.95;1707490;83;20228;-57
2022/05/17 05:00:00;;;;;;;;;;;;;;;12.23;46.05;100531.99;1742987;80;20613;-52
2022/05/17 05:03:13;;;;;;;;;;;;;;;12.39;46.02;100535.98;1724318;82;20273;-51
2022/05/17 05:06:20;;;;;;;;;;;;;;;12.51;45.97;100527.64;1743502;80;20241;-59
2022/05/17 05:09:56;;;;;;;;;;;;;;;12.66;45.94;100530.43;1741116;81;20190;-60
2022/05/17 05:12:53;;;;;;;;;;;;;;;12.82;45.95;100533.03;1759720;80;20648;-61
2022/05/17 05:16:00;;;;;;;;;;;;;;;12.98;45.86;100530.12;1736146;80;20220;-59
2022/05/17 05:19:08;;;;;;;;;;;;;;;13.11;45.84;100528.44;1745035;82;20675;-59
2022/05/17 05:22:16;;;;;;;;;;;;;;;13.26;45.76;100526.57;1771366;80;20265;-59
2022/05/17 05:25:26;;;;;;;;;;;;;;;13.40;45.67;100524.34;1784993;80;20520;-59
2022/05/17 05:28:31;;;;;;;;;;;;;;;13.57;45.65;100532.39;1780522;79;20240;-58
2022/05/17 05:31:36;;;;;;;;;;;;;;;13.79;45.63;100528.14;1772507;80;20321;-57
2022/05/17 05:34:40;;;;;;;;;;;;;;;14.05;45.50;100535.86;1743077;82;20218;-58
2022/05/17 05:37:45;;;;;;;;;;;;;;;14.30;45.44;100532.55;1695391;83;20625;-58
2022/05/17 05:40:50;;;;;;;;;;;;;;;14.52;45.26;100530.66;1725268;82;20217;-58
2022/05/17 05:44:01;;;;;;;;;;;;;;;14.69;45.12;100531.56;1714813;82;20198;-51
2022/05/17 05:47:17;;;;;;;;;;;;;;;14.76;44.94;100517.84;1716219;83;20250;-57
2022/05/17 05:50:28;;;;;;;;;;;;;;;14.83;44.81;100528.38;1725007;82;20312;-55
2022/05/17 05:53:36;;;;;;;;;;;;;;;14.85;44.66;100516.13;1733705;80;20585;-56
2022/05/17 05:56:42;;;;;;;;;;;;;;;14.84;44.55;100509.44;1747814;82;20256;-57
2022/05/17 05:59:48;;;;;;;;;;;;;;;14.84;44.47;100511.64;1744740;82;20222;-57
2022/05/17 06:02:55;;;;;;;;;;;;;;;14.89;44.38;100511.03;1746148;81;20255;-59
2022/05/17 06:06:01;;;;;;;;;;;;;;;14.98;44.37;100509.30;1744289;81;20329;-58
2022/05/17 06:09:07;;;;;;;;;;;;;;;15.12;44.29;100509.41;1718550;82;20208;-59
2022/05/17 06:12:12;;;;;;;;;;;;;;;15.27;44.09;100508.78;1732900;82;20225;-56
2022/05/17 06:15:19;;;;;;;;;;;;;;;15.43;43.97;100516.76;1742623;82;20243;-58
2022/05/17 06:18:27;;;;;;;;;;;;;;;15.65;43.81;100499.04;1756477;80;20544;-58
2022/05/17 06:21:32;;;;;;;;;;;;;;;15.86;43.69;100497.50;1702608;82;20220;-56
2022/05/17 06:24:41;;;;;;;;;;;;;;;16.00;43.48;100501.48;1742703;80;20300;-59
2022/05/17 06:28:01;;;;;;;;;;;;;;;16.02;43.28;100496.62;1736635;80;20244;-57
2022/05/17 06:31:17;;;;;;;;;;;;;;;16.03;43.09;100499.69;1739368;82;20249;-58
2022/05/17 06:34:42;;;;;;;;;;;;;;;16.06;43.02;100498.44;1746871;80;20220;-57
2022/05/17 06:37:49;;;;;;;;;;;;;;;16.09;42.85;100501.61;1739341;80;20209;-58
2022/05/17 06:40:59;;;;;;;;;;;;;;;16.17;42.76;100488.99;1738610;81;20251;-59
2022/05/17 06:44:05;;;;;;;;;;;;;;;16.27;42.66;100496.35;1739105;81;20570;-56
2022/05/17 06:47:11;;;;;;;;;;;;;;;16.41;42.53;100492.55;1744875;81;20211;-58
2022/05/17 06:50:15;;;;;;;;;;;;;;;16.52;42.38;100495.27;1745882;80;20249;-58
2022/05/17 06:53:20;;;;;;;;;;;;;;;16.59;42.18;100498.00;1731177;80;20245;-57
2022/05/17 06:56:25;;;;;;;;;;;;;;;16.60;42.02;100501.97;1732135;80;20220;-57
2022/05/17 06:59:29;;;;;;;;;;;;;;;16.57;41.87;100503.75;1762574;80;20474;-62
2022/05/17 07:02:37;;;;;;;;;;;;;;;16.53;41.78;100496.95;1749637;80;20210;-59
2022/05/17 07:05:46;;;;;;;;;;;;;;;16.42;41.64;100494.78;1749993;81;20175;-58
2022/05/17 07:08:53;;;;;;;;;;;;;;;16.28;41.61;100488.92;1748917;81;20213;-57
2022/05/17 07:15:24;;;;;;;;;;;;;;;16.26;41.62;100473.08;1743456;82;20200;-59
2022/05/17 07:18:32;;;;;;;;;;;;;;;16.31;41.58;100470.55;1740406;81;20520;-59
2022/05/17 07:21:38;;;;;;;;;;;;;;;16.36;41.51;100453.64;1734237;82;20229;-59
2022/05/17 07:24:46;;;;;;;;;;;;;;;16.36;41.39;100455.57;1730369;83;20262;-58
2022/05/17 07:27:51;;;;;;;;;;;;;;;16.35;41.25;100440.89;1721844;82;20204;-59
2022/05/17 07:30:59;;;;;;;;;;;;;;;16.41;41.19;100450.27;1729326;82;20598;-59
2022/05/17 07:34:34;;;;;;;;;;;;;;;16.48;41.17;100446.13;1734047;81;20196;-58
2022/05/17 07:37:41;;;;;;;;;;;;;;;16.63;41.14;100452.31;1730460;82;20265;-59
2022/05/17 07:40:50;;;;;;;;;;;;;;;16.79;41.10;100439.44;1741614;82;20353;-60
2022/05/17 07:43:57;;;;;;;;;;;;;;;16.94;40.96;100431.73;1718736;82;20886;-60
2022/05/17 07:47:04;;;;;;;;;;;;;;;17.07;40.83;100445.02;1734294;82;20217;-59
2022/05/17 07:50:08;;;;;;;;;;;;;;;17.19;40.65;100427.20;1732260;82;20621;-60
2022/05/17 07:53:16;;;;;;;;;;;;;;;17.25;40.51;100431.89;1739404;81;20220;-58
2022/05/17 07:56:22;;;;;;;;;;;;;;;17.30;40.39;100430.70;1735865;82;20207;-57
2022/05/17 07:59:27;;;;;;;;;;;;;;;17.37;40.23;100407.99;1727528;81;20233;-58
2022/05/17 08:02:42;;;;;;;;;;;;;;;17.49;40.17;100425.66;1694875;83;20229;-59
2022/05/17 08:05:51;;;;;;;;;;;;;;;17.62;40.10;100418.13;1740501;82;20220;-58
2022/05/17 08:09:04;;;;;;;;;;;;;;;17.77;39.95;100411.75;1738928;81;20609;-59
2022/05/17 08:12:12;;;;;;;;;;;;;;;18.02;39.87;100408.20;1738423;82;20225;-57
2022/05/17 08:15:18;;;;;;;;;;;;;;;18.12;39.63;100403.89;1731563;82;20582;-57
2022/05/17 08:18:24;;;;;;;;;;;;;;;18.08;39.44;100401.23;1728741;82;20214;-60
2022/05/17 08:21:30;;;;;;;;;;;;;;;18.01;39.31;100389.37;1742505;82;20228;-60
2022/05/17 08:27:42;;;;;;;;;;;;;;;18.27;39.23;100386.38;1734894;81;20221;-58
2022/05/17 08:30:47;;;;;;;;;;;;;;;18.44;39.07;100380.61;1731654;82;20225;-59
2022/05/17 08:33:52;;;;;;;;;;;;;;;18.50;38.89;100368.64;1744391;81;20212;-58
2022/05/17 08:36:58;;;;;;;;;;;;;;;18.56;38.73;100354.39;1740764;82;20209;-58
2022/05/17 08:40:07;;;;;;;;;;;;;;;18.62;38.53;100366.80;1721819;82;20219;-59
2022/05/17 08:43:32;;;;;;;;;;;;;;;18.59;38.40;100359.47;1744971;81;20251;-60
2022/05/17 08:47:11;;;;;;;;;;;;;;;18.63;38.30;100363.50;1737564;82;20212;-59
2022/05/17 08:50:24;;;;;;;;;;;;;;;18.69;38.08;100365.36;1744198;81;20211;-60
2022/05/17 08:53:30;;;;;;;;;;;;;;;18.59;37.85;100367.27;1744239;81;20836;-59
2022/05/17 08:56:35;;;;;;;;;;;;;;;18.39;37.78;100371.30;1741764;82;20236;-60
2022/05/17 08:59:43;;;;;;;;;;;;;;;18.30;37.76;100374.84;1738587;82;20507;-60
